Time;durP1;ratioP1;P1;durP2;ratioP2;P2;SDS_P1;SDS_P2;PMS_P1;PMS_P2;Temp;Humidity;BMP_temperature;BMP_pressure;BME280_temperature;BME280_humidity;BME280_pressure;Samples;Min_cycle;Max_cycle;Signal;HPM_P1;HPM_P2
2022/08/08 00:00:08;;;;;;;5.70;2.00;;;;;;;17.12;78.71;99399.87;104767;1274;75467;-25
2022/08/08 00:03:18;;;;;;;2.90;2.60;;;;;;;16.78;79.49;99400.64;104976;1274;60971;-24
2022/08/08 00:06:26;;;;;;;2.00;1.20;;;;;;;16.57;80.52;99400.11;104740;1271;62291;-24
2022/08/08 00:09:11;;;;;;;2.30;1.60;;;;;;;17.25;78.53;99399.90;104656;1274;75509;-25
2022/08/08 00:11:45;;;;;;;3.10;1.50;;;;;;;17.47;76.67;99402.73;104658;1274;74597;-25
2022/08/08 00:14:56;;;;;;;3.30;1.80;;;;;;;17.16;77.74;99407.08;104887;1274;73807;-24
2022/08/08 00:17:38;;;;;;;2.70;1.90;;;;;;;16.86;78.99;99404.73;105083;1274;61899;-24
2022/08/08 00:20:37;;;;;;;2.70;2.00;;;;;;;16.57;79.92;99406.22;104666;1274;61151;-25
2022/08/08 00:23:07;;;;;;;2.70;1.30;;;;;;;16.33;81.68;99400.02;105015;1273;75491;-24
2022/08/08 00:25:48;;;;;;;5.00;1.60;;;;;;;16.76;81.46;99399.91;104937;1272;76156;-24
2022/08/08 00:28:26;;;;;;;8.50;1.50;;;;;;;17.23;79.39;99403.94;104769;1272;74199;-24
2022/08/08 00:31:16;;;;;;;3.20;1.80;;;;;;;17.17;79.65;99404.88;104761;1274;61325;-24
2022/08/08 00:37:37;;;;;;;2.60;1.80;;;;;;;16.62;81.17;99399.21;105097;1271;75705;-24
2022/08/08 00:40:31;;;;;;;2.20;1.30;;;;;;;16.51;82.11;99403.84;104898;1274;76316;-24
2022/08/08 00:43:40;;;;;;;1.80;1.60;;;;;;;17.24;80.35;99396.67;104971;1274;74262;-24
2022/08/08 00:46:50;;;;;;;3.40;1.80;;;;;;;17.54;78.55;99398.27;104851;1272;61162;-25
2022/08/08 00:49:37;;;;;;;3.00;1.80;;;;;;;17.31;78.93;99398.96;104987;1274;61075;-25
2022/08/08 00:52:34;;;;;;;1.90;1.60;;;;;;;17.03;79.99;99399.64;104658;1271;74695;-25
2022/08/08 00:55:25;;;;;;;5.30;2.40;;;;;;;16.80;80.51;99396.94;104777;1272;75067;-24
2022/08/08 00:58:50;;;;;;;3.70;1.40;;;;;;;16.67;81.32;99397.89;104704;1274;74337;-24
2022/08/08 01:01:28;;;;;;;3.10;1.80;;;;;;;17.44;79.46;99397.77;104805;1274;61810;-24
2022/08/08 01:04:45;;;;;;;2.10;1.70;;;;;;;17.66;77.96;99395.26;104629;1274;61134;-24
2022/08/08 01:07:26;;;;;;;3.60;1.70;;;;;;;17.46;78.27;99391.11;104783;1274;74433;-24
2022/08/08 01:10:32;;;;;;;2.70;1.90;;;;;;;17.11;79.48;99390.59;104701;1274;74628;-24
2022/08/08 01:13:35;;;;;;;4.80;1.70;;;;;;;16.76;81.63;99388.70;104736;1274;74708;-24
2022/08/08 01:16:23;;;;;;;5.00;1.70;;;;;;;17.29;79.64;99388.09;104776;1271;60933;-24
2022/08/08 01:19:14;;;;;;;3.70;1.70;;;;;;;17.59;78.14;99389.36;104732;1274;62020;-24
2022/08/08 01:22:17;;;;;;;2.20;1.60;;;;;;;17.44;78.02;99395.98;104701;1274;75586;-25
2022/08/08 01:25:15;;;;;;;3.80;1.90;;;;;;;17.17;78.91;99397.90;104755;1274;75810;-24
2022/08/08 01:28:20;;;;;;;4.50;1.90;;;;;;;16.89;79.59;99397.05;104814;1274;73461;-24
2022/08/08 01:31:34;;;;;;;1.50;1.10;;;;;;;16.75;80.77;99394.10;104715;1274;61179;-24
2022/08/08 01:34:50;;;;;;;2.00;1.40;;;;;;;17.56;78.23;99392.44;105117;1272;62103;-25
2022/08/08 01:37:30;;;;;;;3.80;1.90;;;;;;;17.59;77.01;99390.34;105109;1274;75493;-24
2022/08/08 01:40:42;;;;;;;3.00;2.20;;;;;;;17.34;78.13;99389.48;104936;1274;75855;-25
2022/08/08 01:43:36;;;;;;;3.30;2.00;;;;;;;16.99;79.47;99389.41;104984;1274;73464;-24
2022/08/08 01:46:28;;;;;;;3.50;2.30;;;;;;;16.76;80.32;99383.17;104721;1274;60998;-25
2022/08/08 01:49:33;;;;;;;4.30;1.40;;;;;;;16.44;81.88;99382.66;104564;1274;61910;-25
2022/08/08 01:52:23;;;;;;;1.70;1.40;;;;;;;17.00;79.97;99381.34;104968;1274;75563;-25
2022/08/08 01:55:29;;;;;;;3.80;2.10;;;;;;;16.93;79.80;99385.20;105117;1274;75819;-24
2022/08/08 01:58:33;;;;;;;3.00;2.20;;;;;;;16.85;80.07;99389.52;104939;1274;74406;-25
2022/08/08 02:01:13;;;;;;;2.80;2.00;;;;;;;16.75;80.28;99394.09;105099;1274;61949;-25
2022/08/08 02:04:00;;;;;;;2.10;1.20;;;;;;;16.57;80.81;99395.73;104848;1274;61800;-24
2022/08/08 02:06:51;;;;;;;5.60;1.60;;;;;;;17.01;79.73;99398.26;104742;1274;73662;-24
2022/08/08 02:09:40;;;;;;;3.20;1.70;;;;;;;17.41;77.69;99400.02;104626;1274;75986;-24
2022/08/08 02:12:47;;;;;;;3.60;1.90;;;;;;;17.24;77.93;99402.14;104813;1274;74441;-25
2022/08/08 02:15:20;;;;;;;4.00;2.20;;;;;;;16.48;80.92;99409.27;104690;1274;61837;-24
2022/08/08 02:18:12;;;;;;;2.40;1.70;;;;;;;16.18;82.69;99403.65;104794;1274;62072;-25
2022/08/08 02:23:56;;;;;;;7.60;2.60;;;;;;;16.30;82.00;99399.67;105132;1274;75138;-25
2022/08/08 02:26:31;;;;;;;2.80;1.90;;;;;;;16.16;83.15;99402.58;104900;1274;73731;-24
2022/08/08 02:29:24;;;;;;;3.80;2.20;;;;;;;16.21;82.80;99405.62;104747;1274;61100;-24
2022/08/08 02:32:09;;;;;;;4.90;1.60;;;;;;;15.78;84.66;99406.30;104641;1274;61122;-24
2022/08/08 02:35:01;;;;;;;3.30;1.90;;;;;;;16.34;82.33;99404.62;105014;1274;75383;-25
2022/08/08 02:38:20;;;;;;;6.40;1.90;;;;;;;16.71;80.44;99407.45;105135;1274;74951;-24
2022/08/08 02:41:23;;;;;;;2.80;2.00;;;;;;;16.59;80.07;99414.93;104756;1274;74460;-24
2022/08/08 02:44:33;;;;;;;2.20;1.50;;;;;;;15.88;83.60;99414.42;105105;1272;63463;-25
2022/08/08 02:47:36;;;;;;;4.50;1.70;;;;;;;16.11;83.03;99415.34;105137;1271;62107;-24
2022/08/08 02:50:30;;;;;;;5.10;1.80;;;;;;;16.57;80.60;99422.52;105093;1274;74658;-24
2022/08/08 02:53:26;;;;;;;4.30;1.90;;;;;;;16.50;79.92;99425.90;104968;1274;75862;-24
2022/08/08 02:56:02;;;;;;;3.60;2.20;;;;;;;16.19;80.78;99426.14;104692;1274;74161;-25
2022/08/08 02:59:03;;;;;;;1.20;1.10;;;;;;;15.93;82.09;99427.45;104662;1274;62564;-24
2022/08/08 03:01:53;;;;;;;2.20;1.30;;;;;;;16.36;80.99;99430.95;104778;1274;61959;-25
2022/08/08 03:04:37;;;;;;;5.80;1.50;;;;;;;16.65;79.30;99431.77;104781;1274;75692;-24
2022/08/08 03:07:59;;;;;;;7.00;2.00;;;;;;;16.52;78.87;99437.23;104747;1274;75935;-24
2022/08/08 03:10:54;;;;;;;4.10;2.20;;;;;;;16.22;80.21;99439.04;104736;1274;74771;-24
2022/08/08 03:13:50;;;;;;;3.00;1.70;;;;;;;15.99;81.30;99444.71;104812;1272;63349;-24
2022/08/08 03:16:44;;;;;;;2.90;1.80;;;;;;;16.57;79.41;99446.23;104603;1274;61128;-24
2022/08/08 03:19:38;;;;;;;8.60;2.20;;;;;;;16.56;79.06;99447.19;104764;1274;74389;-24
2022/08/08 03:22:18;;;;;;;3.60;2.40;;;;;;;15.97;81.68;99446.66;104799;1274;76010;-25
2022/08/08 03:25:06;;;;;;;3.80;2.20;;;;;;;15.77;82.65;99453.61;104763;1274;74610;-24
2022/08/08 03:28:08;;;;;;;4.40;1.50;;;;;;;15.57;83.37;99451.63;104797;1274;62306;-24
2022/08/08 03:30:37;;;;;;;4.40;2.10;;;;;;;15.88;82.44;99450.16;104772;1274;61114;-24
2022/08/08 03:33:18;;;;;;;3.80;1.90;;;;;;;16.19;80.77;99448.54;104749;1274;75629;-25
2022/08/08 03:36:09;;;;;;;5.00;2.10;;;;;;;16.35;80.37;99450.85;104760;1274;76127;-25
2022/08/08 03:38:38;;;;;;;5.10;2.30;;;;;;;16.50;79.20;99453.58;104647;1274;72611;-24
2022/08/08 03:41:33;;;;;;;1.70;1.20;;;;;;;16.66;78.60;99456.36;104779;1274;61505;-25
2022/08/08 03:44:21;;;;;;;5.00;1.30;;;;;;;17.17;76.51;99456.32;104572;1274;61379;-25
2022/08/08 03:46:53;;;;;;;2.00;1.40;;;;;;;17.44;75.32;99459.55;104784;1274;75774;-25
2022/08/08 03:49:25;;;;;;;5.00;1.80;;;;;;;17.22;75.75;99460.95;104822;1274;76131;-24
2022/08/08 03:52:14;;;;;;;3.10;1.70;;;;;;;17.00;76.40;99466.95;103889;1274;1192942;-25
2022/08/08 03:54:43;;;;;;;3.70;1.60;;;;;;;16.75;77.69;99466.63;104830;1271;61294;-24
2022/08/08 03:57:31;;;;;;;1.80;1.30;;;;;;;16.09;80.94;99463.88;105057;1274;61146;-24
2022/08/08 04:00:24;;;;;;;2.70;1.20;;;;;;;15.91;81.98;99459.63;105082;1271;75721;-24
2022/08/08 04:03:07;;;;;;;6.50;1.90;;;;;;;16.52;79.84;99460.00;104853;1273;75228;-24
2022/08/08 04:05:40;;;;;;;3.90;1.90;;;;;;;15.97;81.95;99463.58;104776;1274;74306;-24
2022/08/08 04:08:21;;;;;;;2.30;1.80;;;;;;;15.54;84.21;99461.27;105135;1274;61127;-25
2022/08/08 04:11:03;;;;;;;2.10;1.30;;;;;;;15.59;84.48;99461.48;105095;1274;62036;-24
2022/08/08 04:13:45;;;;;;;3.60;1.90;;;;;;;16.10;82.83;99462.17;105081;1274;74110;-24
2022/08/08 04:16:33;;;;;;;3.20;2.00;;;;;;;16.21;81.98;99463.23;105134;1274;76024;-24
2022/08/08 04:19:10;;;;;;;3.60;2.10;;;;;;;15.89;83.27;99462.96;104879;1274;74437;-24
2022/08/08 04:21:58;;;;;;;4.10;1.50;;;;;;;15.79;83.63;99461.87;104741;1274;62106;-24
2022/08/08 04:24:29;;;;;;;2.80;1.70;;;;;;;15.84;84.11;99460.52;104592;1274;61147;-25
2022/08/08 04:27:00;;;;;;;3.90;1.90;;;;;;;16.03;83.52;99460.44;104774;1274;74506;-25
2022/08/08 04:29:46;;;;;;;2.90;2.10;;;;;;;16.28;82.13;99462.05;104799;1272;77480;-24
2022/08/08 04:32:27;;;;;;;3.40;1.90;;;;;;;16.54;80.73;99464.19;104790;1272;74448;-25
2022/08/08 04:34:58;;;;;;;2.90;1.70;;;;;;;16.50;81.12;99464.27;104796;1272;62081;-24
2022/08/08 04:37:31;;;;;;;;;;;;;;;16.37;81.68;99462.75;104783;1274;61006;-25
2022/08/08 04:40:05;;;;;;;3.10;1.70;;;;;;;16.90;80.16;99462.21;104723;1274;75429;-24
2022/08/08 04:42:50;;;;;;;3.50;2.10;;;;;;;17.16;78.57;99465.73;104769;1274;76111;-24
2022/08/08 04:45:31;;;;;;;7.20;2.60;;;;;;;16.70;80.38;99467.91;104735;1271;74307;-25
2022/08/08 04:48:01;;;;;;;10.20;5.20;;;;;;;16.42;80.66;99467.31;104722;1272;62394;-25
2022/08/08 04:50:32;;;;;;;2.10;1.90;;;;;;;15.96;83.42;99466.73;104722;1274;61077;-25
2022/08/08 04:53:06;;;;;;;8.70;3.50;;;;;;;16.07;82.88;99473.52;104814;1271;75595;-24
2022/08/08 04:55:54;;;;;;;2.90;2.70;;;;;;;16.96;79.61;99468.27;104791;1271;75905;-24
2022/08/08 04:58:26;;;;;;;6.50;4.10;;;;;;;16.90;78.94;99465.73;104798;1271;73560;-24
2022/08/08 05:00:56;;;;;;;8.60;6.80;;;;;;;16.20;81.58;99472.77;104812;1271;61166;-24
2022/08/08 05:03:24;;;;;;;7.50;5.20;;;;;;;16.42;80.75;99474.61;104685;1274;61129;-24
2022/08/08 05:06:13;;;;;;;6.20;2.90;;;;;;;16.36;80.94;99471.41;104812;1272;75546;-25
2022/08/08 05:08:56;;;;;;;7.50;3.30;;;;;;;17.24;78.13;99470.54;104626;1274;75898;-23
2022/08/08 05:11:36;;;;;;;6.50;4.00;;;;;;;17.68;75.84;99469.67;104909;1272;74452;-23
2022/08/08 05:14:10;;;;;;;10.50;7.00;;;;;;;17.72;75.40;99473.14;104788;1271;61141;-24
2022/08/08 05:18:35;;;;;;;8.10;4.20;;;;;;;17.12;77.06;99472.43;101658;1310;600640;-23
2022/08/08 05:21:05;;;;;;;11.90;6.80;;;;;;;16.51;79.63;99475.36;103991;1284;61144;-23
2022/08/08 05:23:33;;;;;;;4.80;3.70;;;;;;;16.98;78.43;99475.61;104036;1284;63011;-23
2022/08/08 05:26:12;;;;;;;6.40;4.10;;;;;;;17.04;77.15;99475.00;104030;1284;75038;-23
2022/08/08 05:28:40;;;;;;;12.80;9.00;;;;;;;16.46;79.45;99472.88;103707;1287;76064;-23
2022/08/08 05:31:23;;;;;;;8.90;4.90;;;;;;;16.66;79.21;99480.37;103216;1278;1389855;-23
2022/08/08 05:34:23;;;;;;;13.40;9.60;;;;;;;17.30;76.90;99477.79;104450;1277;63191;-23
2022/08/08 05:36:53;;;;;;;10.30;6.90;;;;;;;17.07;78.00;99485.02;104558;1274;62824;-23
2022/08/08 05:39:23;;;;;;;9.20;7.00;;;;;;;17.04;77.32;99484.95;104603;1275;74836;-23
2022/08/08 05:41:56;;;;;;;18.70;11.80;;;;;;;16.98;77.87;99489.10;104496;1275;76989;-23
2022/08/08 05:44:33;;;;;;;14.70;9.00;;;;;;;17.30;77.34;99486.80;104498;1275;74253;-24
2022/08/08 05:47:02;;;;;;;8.90;6.40;;;;;;;17.44;76.31;99484.29;104348;1274;63329;-23
2022/08/08 05:49:32;;;;;;;10.80;7.80;;;;;;;17.90;74.53;99478.98;104531;1274;61674;-23
2022/08/08 05:52:05;;;;;;;7.60;4.80;;;;;;;18.51;72.58;99474.85;104639;1277;75496;-23
2022/08/08 05:54:35;;;;;;;6.40;3.80;;;;;;;18.87;70.28;99475.71;104385;1277;77149;-24
2022/08/08 05:57:18;;;;;;;8.80;4.40;;;;;;;18.51;71.48;99479.26;104649;1275;74393;-23
2022/08/08 06:00:09;;;;;;;5.90;4.10;;;;;;;18.49;71.40;99480.87;104332;1275;61434;-23
2022/08/08 06:03:12;;;;;;;10.10;6.70;;;;;;;18.54;71.79;99480.73;104652;1277;61827;-24
2022/08/08 06:06:05;;;;;;;7.60;6.60;;;;;;;17.86;73.70;99482.42;104754;1277;75835;-23
2022/08/08 06:08:43;;;;;;;4.90;3.00;;;;;;;18.03;73.06;99479.41;104698;1277;77013;-23
2022/08/08 06:11:21;;;;;;;5.40;3.50;;;;;;;18.61;70.51;99476.77;104526;1277;75393;-23
2022/08/08 06:13:55;;;;;;;10.60;7.60;;;;;;;19.06;69.40;99482.08;104380;1278;63126;-23
2022/08/08 06:16:23;;;;;;;6.10;3.70;;;;;;;19.24;68.52;99487.33;104396;1277;61960;-24
2022/08/08 06:19:17;;;;;;;11.30;5.40;;;;;;;19.00;69.43;99490.29;104387;1275;75824;-23
2022/08/08 06:21:51;;;;;;;11.70;5.90;;;;;;;18.87;69.42;99495.89;104569;1274;75964;-23
2022/08/08 06:24:34;;;;;;;7.80;3.70;;;;;;;18.72;69.81;99496.51;104674;1274;75505;-23
2022/08/08 06:27:05;;;;;;;5.50;3.00;;;;;;;19.04;68.49;99495.36;104829;1274;62739;-22
2022/08/08 06:30:02;;;;;;;10.30;6.90;;;;;;;18.46;69.21;99495.19;104713;1274;61932;-23
2022/08/08 06:32:49;;;;;;;11.60;2.80;;;;;;;18.25;70.43;99497.05;104665;1274;75745;-23
2022/08/08 06:35:21;;;;;;;9.60;5.10;;;;;;;18.50;69.43;99497.94;104472;1274;76923;-23
2022/08/08 06:38:09;;;;;;;8.90;5.00;;;;;;;18.32;70.28;99497.09;104487;1274;75472;-23
2022/08/08 06:40:43;;;;;;;6.00;4.00;;;;;;;18.51;69.49;99494.71;104724;1274;61176;-23
2022/08/08 06:43:21;;;;;;;6.50;4.00;;;;;;;19.32;67.89;99488.20;104698;1277;61043;-23
2022/08/08 06:46:16;;;;;;;5.10;2.70;;;;;;;19.40;66.61;99493.73;104570;1274;74564;-23
2022/08/08 06:48:50;;;;;;;;;;;;;;;19.41;66.51;99492.55;104622;1274;75917;-23
2022/08/08 06:51:17;;;;;;;4.10;2.00;;;;;;;19.88;66.06;99497.61;104415;1274;74120;-23
2022/08/08 06:53:49;;;;;;;4.30;2.00;;;;;;;20.40;63.92;99495.67;104329;1275;61128;-23
2022/08/08 06:56:29;;;;;;;2.70;2.00;;;;;;;20.70;63.12;99491.80;104530;1274;63203;-23
2022/08/08 06:58:57;;;;;;;4.20;2.00;;;;;;;20.75;61.94;99492.45;104584;1274;74714;-23
2022/08/08 07:01:26;;;;;;;5.00;1.70;;;;;;;20.73;61.44;99496.89;104542;1274;77255;-23
2022/08/08 07:04:24;;;;;;;2.70;1.60;;;;;;;20.82;61.42;99490.23;104662;1274;75374;-24
2022/08/08 07:07:09;;;;;;;2.20;1.50;;;;;;;20.09;63.06;99495.67;104663;1274;62092;-24
2022/08/08 07:09:48;;;;;;;3.60;1.50;;;;;;;20.08;63.17;99497.23;104714;1275;61085;-25
2022/08/08 07:12:34;;;;;;;2.80;1.60;;;;;;;20.70;62.42;99496.27;104765;1271;74924;-25
2022/08/08 07:15:04;;;;;;;3.40;1.40;;;;;;;20.43;62.25;99489.48;105073;1271;77246;-24
2022/08/08 07:17:49;;;;;;;3.00;1.50;;;;;;;20.47;62.65;99487.33;105071;1271;75449;-24
2022/08/08 07:20:43;;;;;;;4.30;1.50;;;;;;;20.45;62.38;99488.37;105095;1271;61780;-24
2022/08/08 07:23:23;;;;;;;1.70;1.40;;;;;;;20.36;63.26;99485.84;104971;1274;61926;-23
2022/08/08 07:25:52;;;;;;;1.90;1.30;;;;;;;20.51;61.55;99482.62;104709;1271;75729;-22
2022/08/08 07:28:22;;;;;;;1.90;1.40;;;;;;;20.19;61.46;99485.19;105034;1271;77022;-23
2022/08/08 07:30:59;;;;;;;8.80;4.60;;;;;;;19.96;61.36;99487.08;105095;1271;75206;-23
2022/08/08 07:33:26;;;;;;;4.70;1.40;;;;;;;19.64;62.79;99484.01;104829;1274;63049;-23
2022/08/08 07:36:07;;;;;;;1.70;1.20;;;;;;;19.97;62.38;99487.37;104957;1271;62734;-23
2022/08/08 07:38:36;;;;;;;4.10;2.50;;;;;;;19.90;63.22;99482.28;104813;1271;75821;-23
2022/08/08 07:41:08;;;;;;;7.60;3.40;;;;;;;19.98;63.46;99484.42;104851;1271;77521;-23
2022/08/08 07:43:51;;;;;;;1.90;1.40;;;;;;;19.88;61.82;99485.73;104777;1271;73729;-23
2022/08/08 07:46:20;;;;;;;5.80;4.00;;;;;;;19.96;61.40;99493.54;104803;1271;62819;-23
2022/08/08 07:49:04;;;;;;;7.40;5.00;;;;;;;19.92;62.76;99492.55;104775;1271;62997;-23
2022/08/08 07:51:32;;;;;;;3.40;1.30;;;;;;;19.92;61.14;99498.97;104818;1271;75575;-23
2022/08/08 07:54:38;;;;;;;11.80;5.00;;;;;;;19.57;62.54;99492.90;104777;1271;77100;-23
2022/08/08 07:57:32;;;;;;;4.90;1.60;;;;;;;19.71;61.76;99497.64;104591;1274;74180;-23
2022/08/08 08:00:08;;;;;;;2.40;1.80;;;;;;;19.78;61.71;99496.45;104774;1269;62015;-22
2022/08/08 08:03:15;;;;;;;9.40;5.80;;;;;;;20.19;61.96;99499.35;105013;1271;62093;-23
2022/08/08 08:05:52;;;;;;;7.20;3.40;;;;;;;20.65;59.84;99501.23;104970;1271;74633;-23
2022/08/08 08:08:31;;;;;;;1.80;1.20;;;;;;;20.53;59.17;99495.05;105025;1271;77022;-23
2022/08/08 08:10:58;;;;;;;2.90;2.60;;;;;;;20.55;58.92;99503.97;104757;1271;75647;-23
2022/08/08 08:13:42;;;;;;;9.00;5.80;;;;;;;20.70;59.88;99500.44;104812;1271;62023;-23
2022/08/08 08:16:35;;;;;;;2.70;1.90;;;;;;;21.32;57.51;99501.87;104768;1271;62772;-23
2022/08/08 08:19:04;;;;;;;;;;;;;;;20.87;57.16;99498.33;104505;1271;75422;-23
2022/08/08 08:21:38;;;;;;;8.70;4.90;;;;;;;20.56;58.00;99507.01;104827;1271;77151;-23
2022/08/08 08:24:44;;;;;;;10.40;5.90;;;;;;;21.15;57.30;99500.88;104985;1271;75807;-23
2022/08/08 08:27:15;;;;;;;3.80;2.80;;;;;;;20.49;56.66;99509.97;105113;1271;61742;-23
2022/08/08 08:29:45;;;;;;;3.00;1.30;;;;;;;20.84;56.75;99513.20;105008;1271;62055;-23
2022/08/08 08:32:18;;;;;;;6.00;1.20;;;;;;;21.27;57.17;99514.41;104799;1271;75897;-23
2022/08/08 08:35:08;;;;;;;2.00;1.20;;;;;;;21.84;56.32;99514.73;104748;1271;77010;-23
2022/08/08 08:37:36;;;;;;;1.90;1.20;;;;;;;22.12;55.95;99510.77;104760;1271;75211;-23
2022/08/08 08:40:24;;;;;;;3.80;3.00;;;;;;;21.83;54.43;99505.34;104673;1274;62025;-23
2022/08/08 08:43:13;;;;;;;4.60;3.00;;;;;;;21.43;55.22;99498.63;104769;1271;62138;-23
2022/08/08 08:45:46;;;;;;;15.80;11.50;;;;;;;21.46;54.36;99493.00;104743;1271;75759;-22
2022/08/08 08:48:23;;;;;;;2.50;1.30;;;;;;;21.70;53.27;99496.34;104669;1271;77058;-23
2022/08/08 08:50:52;;;;;;;3.80;1.10;;;;;;;21.99;52.71;99491.84;104816;1271;75547;-23
2022/08/08 08:53:20;;;;;;;3.00;1.60;;;;;;;21.89;53.62;99495.58;104597;1274;62073;-23
2022/08/08 08:56:13;;;;;;;8.70;1.40;;;;;;;22.24;53.20;99497.58;104801;1271;62018;-23
2022/08/08 08:58:46;;;;;;;2.40;1.40;;;;;;;22.50;52.18;99496.30;104693;1274;74888;-23
2022/08/08 09:01:25;;;;;;;10.60;1.90;;;;;;;21.97;52.66;99495.98;104728;1271;76847;-23
2022/08/08 09:03:59;;;;;;;4.50;2.60;;;;;;;22.16;53.19;99491.09;104671;1272;75148;-23
2022/08/08 09:06:32;;;;;;;1.80;1.20;;;;;;;22.91;52.02;99497.69;104685;1271;63542;-23
2022/08/08 09:09:07;;;;;;;3.90;1.40;;;;;;;22.67;51.98;99501.45;104692;1271;63478;-23
2022/08/08 09:12:01;;;;;;;3.30;1.30;;;;;;;23.37;50.76;99501.63;104631;1274;76104;-23
2022/08/08 09:14:36;;;;;;;2.70;2.00;;;;;;;23.66;48.72;99499.56;104761;1271;74991;-23
2022/08/08 09:17:10;;;;;;;2.90;2.00;;;;;;;22.68;50.69;99487.83;104778;1274;75551;-23
2022/08/08 09:19:46;;;;;;;1.80;1.00;;;;;;;22.41;51.30;99489.45;104773;1271;63155;-25
2022/08/08 09:22:34;;;;;;;2.00;1.00;;;;;;;23.12;50.89;99487.64;104769;1271;61715;-23
2022/08/08 09:25:07;;;;;;;5.40;2.50;;;;;;;23.22;49.06;99483.77;104732;1271;73836;-23
2022/08/08 09:27:38;;;;;;;1.20;1.10;;;;;;;23.46;49.67;99481.21;104740;1271;77468;-23
2022/08/08 09:30:26;;;;;;;0.90;0.80;;;;;;;23.67;47.91;99484.27;104811;1271;74096;-23
2022/08/08 09:32:56;;;;;;;5.00;1.00;;;;;;;24.49;44.74;99487.99;104891;1274;61166;-23
2022/08/08 09:35:46;;;;;;;2.00;1.80;;;;;;;24.98;44.75;99484.33;104818;1272;61137;-23
2022/08/08 09:38:42;;;;;;;5.40;1.50;;;;;;;25.03;43.91;99476.48;104824;1274;74599;-23
2022/08/08 09:41:31;;;;;;;3.50;1.50;;;;;;;24.31;44.72;99482.21;104733;1271;76742;-23
2022/08/08 09:44:22;;;;;;;2.20;2.00;;;;;;;24.02;45.83;99478.08;104665;1271;75371;-23
2022/08/08 09:47:04;;;;;;;9.90;4.30;;;;;;;23.89;44.16;99475.13;104980;1271;62799;-23
2022/08/08 09:49:51;;;;;;;3.50;1.80;;;;;;;23.69;44.99;99478.55;104838;1271;62966;-23
2022/08/08 09:52:22;;;;;;;2.30;1.90;;;;;;;24.33;43.36;99475.96;104721;1271;75442;-23
2022/08/08 09:55:10;;;;;;;1.10;1.00;;;;;;;24.51;44.13;99478.61;104722;1271;75369;-23
2022/08/08 09:57:49;;;;;;;;;;;;;;;24.97;43.89;99474.36;104738;1274;74174;-23
2022/08/08 10:00:23;;;;;;;5.50;3.90;;;;;;;24.58;43.63;99472.84;104601;1271;62017;-24
2022/08/08 10:03:13;;;;;;;3.80;1.30;;;;;;;24.70;43.33;99471.77;104719;1271;62869;-23
2022/08/08 10:05:46;;;;;;;10.20;2.30;;;;;;;24.05;44.52;99471.02;104945;1271;75378;-23
2022/08/08 10:08:15;;;;;;;2.40;0.90;;;;;;;24.65;44.21;99474.05;105068;1271;75928;-23
2022/08/08 10:10:47;;;;;;;1.70;0.60;;;;;;;25.10;43.08;99469.94;104740;1271;73172;-24
2022/08/08 10:13:19;;;;;;;2.80;1.80;;;;;;;24.90;40.84;99466.11;104920;1271;62291;-23
2022/08/08 10:15:57;;;;;;;7.10;3.10;;;;;;;25.71;40.89;99468.63;104609;1271;63050;-23
2022/08/08 10:18:29;;;;;;;5.30;1.90;;;;;;;26.40;41.05;99464.87;104800;1271;76669;-23
2022/08/08 10:21:05;;;;;;;2.30;1.70;;;;;;;26.27;40.64;99464.28;104692;1274;77372;-23
2022/08/08 10:23:49;;;;;;;9.90;4.80;;;;;;;25.45;42.76;99461.27;104460;1271;75722;-23
2022/08/08 10:26:43;;;;;;;4.40;3.30;;;;;;;24.82;43.84;99458.22;104766;1271;62982;-23
2022/08/08 10:29:56;;;;;;;1.50;1.10;;;;;;;25.17;43.68;99456.14;104694;1271;62011;-23
2022/08/08 10:32:42;;;;;;;1.30;0.80;;;;;;;26.43;41.41;99445.35;104722;1274;76527;-23
2022/08/08 10:35:18;;;;;;;3.10;1.10;;;;;;;26.83;39.71;99441.23;104654;1271;76739;-23
2022/08/08 10:38:08;;;;;;;3.90;2.90;;;;;;;26.03;40.85;99441.21;104641;1271;74421;-23
2022/08/08 10:40:39;;;;;;;6.40;1.20;;;;;;;25.35;41.98;99442.20;104662;1274;61073;-23
2022/08/08 10:43:07;;;;;;;3.80;2.00;;;;;;;25.44;41.18;99443.98;104644;1271;61916;-23
2022/08/08 10:45:46;;;;;;;1.80;0.90;;;;;;;26.09;38.57;99441.84;104824;1271;76638;-23
2022/08/08 10:48:32;;;;;;;1.20;0.70;;;;;;;26.79;37.99;99446.79;104667;1272;77034;-24
2022/08/08 10:51:12;;;;;;;1.60;0.70;;;;;;;27.16;37.37;99446.38;104725;1271;75480;-23
2022/08/08 10:53:40;;;;;;;6.80;2.50;;;;;;;27.13;36.37;99444.03;104629;1271;62789;-23
2022/08/08 10:56:25;;;;;;;4.90;2.80;;;;;;;27.29;37.71;99443.95;104755;1271;62493;-23
2022/08/08 10:58:59;;;;;;;3.60;2.10;;;;;;;27.25;37.54;99437.50;104728;1271;76673;-23
2022/08/08 11:01:28;;;;;;;26.00;2.00;;;;;;;27.22;37.03;99435.52;104741;1271;76950;-23
2022/08/08 11:04:00;;;;;;;1.60;0.70;;;;;;;27.18;35.29;99436.89;104829;1271;75443;-23
2022/08/08 11:06:32;;;;;;;1.00;0.90;;;;;;;27.33;36.70;99437.73;104746;1271;62837;-23
2022/08/08 11:09:05;;;;;;;3.00;0.80;;;;;;;26.92;38.09;99431.77;104742;1271;62080;-23
2022/08/08 11:11:46;;;;;;;5.00;0.90;;;;;;;26.24;39.07;99433.63;104743;1271;75636;-23
2022/08/08 11:14:33;;;;;;;1.30;1.10;;;;;;;26.07;39.52;99434.58;104735;1271;76930;-23
2022/08/08 11:17:01;;;;;;;4.20;1.30;;;;;;;26.13;39.91;99430.80;104753;1274;75197;-24
2022/08/08 11:19:29;;;;;;;5.30;3.20;;;;;;;25.82;40.31;99430.11;104839;1274;62931;-24
2022/08/08 11:21:59;;;;;;;7.30;3.60;;;;;;;24.85;43.25;99428.96;104712;1272;61050;-24
2022/08/08 11:24:30;;;;;;;3.40;2.30;;;;;;;24.94;43.34;99428.12;104682;1272;75899;-24
2022/08/08 11:27:02;;;;;;;1.60;1.10;;;;;;;25.33;42.43;99423.63;104751;1272;75748;-24
2022/08/08 11:29:47;;;;;;;8.20;4.90;;;;;;;26.11;41.11;99419.97;104866;1274;74123;-24
2022/08/08 11:32:37;;;;;;;2.10;0.80;;;;;;;25.02;41.66;99422.52;104781;1274;62130;-24
2022/08/08 11:35:07;;;;;;;1.40;0.90;;;;;;;25.96;40.88;99419.26;104683;1274;61751;-24
2022/08/08 11:37:55;;;;;;;1.90;1.20;;;;;;;26.40;38.30;99418.12;104620;1274;76352;-24
2022/08/08 11:40:42;;;;;;;2.30;0.80;;;;;;;26.46;38.76;99420.70;104698;1272;76966;-24
2022/08/08 11:43:15;;;;;;;;;;;;;;;26.39;38.63;99416.00;104617;1274;75403;-24
2022/08/08 11:45:44;;;;;;;1.40;0.80;;;;;;;25.56;39.93;99419.39;104739;1274;63133;-24
2022/08/08 11:48:31;;;;;;;1.10;0.80;;;;;;;25.62;39.28;99416.19;104827;1274;61061;-24
2022/08/08 11:50:59;;;;;;;1.80;1.00;;;;;;;24.92;40.33;99418.41;104789;1274;76546;-24
2022/08/08 11:53:46;;;;;;;2.40;0.80;;;;;;;24.73;41.30;99414.42;104684;1274;76976;-24
2022/08/08 11:56:25;;;;;;;2.80;2.50;;;;;;;24.55;41.59;99414.77;104738;1274;74098;-24
2022/08/08 11:58:55;;;;;;;4.60;1.40;;;;;;;24.98;40.49;99412.79;104588;1274;61906;-24
2022/08/08 12:01:31;;;;;;;2.10;1.10;;;;;;;25.66;39.46;99409.38;104605;1273;63061;-24
2022/08/08 12:04:02;;;;;;;4.20;2.40;;;;;;;25.95;39.56;99406.23;104636;1274;75649;-24
2022/08/08 12:06:31;;;;;;;8.50;1.80;;;;;;;26.02;39.11;99405.42;104650;1274;75822;-24
2022/08/08 12:09:08;;;;;;;3.20;0.90;;;;;;;26.24;39.81;99407.01;104737;1274;75134;-24
2022/08/08 12:11:44;;;;;;;5.90;4.30;;;;;;;26.11;39.64;99400.05;104549;1274;63033;-24
2022/08/08 12:14:22;;;;;;;5.80;2.50;;;;;;;26.30;40.65;99397.10;104876;1274;62743;-24
2022/08/08 12:16:55;;;;;;;3.40;3.10;;;;;;;26.39;39.96;99403.30;104757;1274;76646;-24
2022/08/08 12:19:24;;;;;;;3.10;1.10;;;;;;;25.52;42.76;99403.78;104935;1271;76965;-24
2022/08/08 12:22:11;;;;;;;2.70;1.60;;;;;;;26.19;42.44;99400.05;105089;1272;75392;-24
2022/08/08 12:24:48;;;;;;;2.50;0.80;;;;;;;26.46;41.65;99400.40;104843;1271;61908;-24
2022/08/08 12:27:22;;;;;;;14.20;1.50;;;;;;;26.59;41.63;99401.08;105007;1271;63073;-24
2022/08/08 12:29:55;;;;;;;2.80;0.90;;;;;;;25.91;41.83;99402.74;104853;1271;76378;-24
2022/08/08 12:32:22;;;;;;;2.60;0.70;;;;;;;26.15;41.91;99403.89;104898;1271;76984;-24
2022/08/08 12:35:02;;;;;;;5.00;1.30;;;;;;;25.84;41.39;99406.00;104748;1274;75403;-23
2022/08/08 12:37:45;;;;;;;4.70;2.00;;;;;;;25.20;42.85;99406.14;104857;1271;61982;-23
2022/08/08 12:40:47;;;;;;;4.20;1.10;;;;;;;25.08;42.66;99412.66;104677;1271;62074;-23
2022/08/08 12:43:29;;;;;;;1.80;1.00;;;;;;;25.22;42.35;99413.01;104870;1271;75445;-23
2022/08/08 12:45:58;;;;;;;35.90;2.00;;;;;;;25.56;42.23;99411.41;104684;1271;76820;-23